createdAt,value
2022-11-19T00:00:24.932Z,20.97
2022-11-19T00:02:55.520Z,23.33
2022-11-19T00:05:23.662Z,20.40
2022-11-19T00:07:52.170Z,19.03
2022-11-19T00:10:21.668Z,23.80
2022-11-19T00:12:56.957Z,21.10
2022-11-19T00:15:25.331Z,21.13
2022-11-19T00:17:53.525Z,21.80
2022-11-19T00:20:21.614Z,20.53
2022-11-19T00:22:52.770Z,20.77
2022-11-19T00:25:22.968Z,19.30
2022-11-19T00:27:51.460Z,23.20
2022-11-19T00:30:46.432Z,23.97
2022-11-19T00:33:08.687Z,22.73
2022-11-19T00:35:36.809Z,21.53
2022-11-19T00:38:04.885Z,20.90
2022-11-19T00:40:34.380Z,21.57
2022-11-19T00:43:19.750Z,23.20
2022-11-19T00:45:49.152Z,18.80
2022-11-19T00:48:19.590Z,21.27
2022-11-19T00:50:49.847Z,19.67
2022-11-19T00:53:18.081Z,21.23
2022-11-19T00:55:47.648Z,20.63
2022-11-19T00:58:15.728Z,22.43
2022-11-19T01:00:44.101Z,20.70
2022-11-19T01:03:12.355Z,21.17
2022-11-19T01:05:42.833Z,18.40
2022-11-19T01:08:13.137Z,21.43
2022-11-19T01:10:42.550Z,23.63
2022-11-19T01:13:29.775Z,16.83
2022-11-19T01:15:57.944Z,21.97
2022-11-19T01:18:27.733Z,20.63
2022-11-19T01:20:56.703Z,21.57
2022-11-19T01:23:24.947Z,25.73
2022-11-19T01:25:53.146Z,21.03
2022-11-19T01:28:24.736Z,20.30
2022-11-19T01:30:53.309Z,23.03
2022-11-19T01:33:23.631Z,20.80
2022-11-19T01:35:59.560Z,20.77
2022-11-19T01:38:27.918Z,22.30
2022-11-19T01:40:56.896Z,21.67
2022-11-19T01:43:42.179Z,19.97
2022-11-19T01:46:11.228Z,24.27
2022-11-19T01:48:43.380Z,24.20
2022-11-19T01:51:14.787Z,21.07
2022-11-19T01:53:46.843Z,20.93
2022-11-19T01:56:16.028Z,23.23
2022-11-19T01:58:48.954Z,23.27
2022-11-19T02:01:18.649Z,22.23
2022-11-19T02:03:47.776Z,21.47
2022-11-19T02:06:17.956Z,20.90
2022-11-19T02:08:50.639Z,21.70
2022-11-19T02:11:44.949Z,22.10
2022-11-19T02:14:54.504Z,24.63
2022-11-19T02:17:34.913Z,23.30
2022-11-19T02:20:34.248Z,21.50
2022-11-19T02:23:32.147Z,22.23
2022-11-19T02:26:21.141Z,19.77
2022-11-19T02:28:53.901Z,22.03
2022-11-19T02:31:28.214Z,22.90
2022-11-19T02:34:02.538Z,21.80
2022-11-19T02:36:37.031Z,24.60
2022-11-19T02:39:16.297Z,21.30
2022-11-19T02:41:52.848Z,24.30
2022-11-19T02:44:45.942Z,23.73
2022-11-19T02:47:19.779Z,21.60
2022-11-19T02:49:50.462Z,23.20
2022-11-19T02:52:19.708Z,22.53
2022-11-19T02:54:47.944Z,22.73
2022-11-19T02:57:16.137Z,21.70
2022-11-19T03:00:06.931Z,21.00
2022-11-19T03:02:58.794Z,21.53
2022-11-19T03:05:30.547Z,19.40
2022-11-19T03:08:01.303Z,20.33
2022-11-19T03:10:39.936Z,20.33
2022-11-19T03:13:29.983Z,20.53
2022-11-19T03:16:17.011Z,21.77
2022-11-19T03:18:51.826Z,22.90
2022-11-19T03:21:25.511Z,23.77
2022-11-19T03:23:58.758Z,22.53
2022-11-19T03:26:32.760Z,23.93
2022-11-19T03:29:05.408Z,21.47
2022-11-19T03:31:35.735Z,22.33
2022-11-19T03:34:11.608Z,24.60
2022-11-19T03:36:42.155Z,21.30
2022-11-19T03:39:13.996Z,21.40
2022-11-19T03:41:43.535Z,21.67
2022-11-19T03:44:16.059Z,21.13
2022-11-19T03:46:46.774Z,18.73
2022-11-19T03:49:18.664Z,19.73
2022-11-19T03:51:53.013Z,20.20
2022-11-19T03:54:21.507Z,19.10
2022-11-19T03:56:52.522Z,20.63
2022-11-19T03:59:29.424Z,20.37
2022-11-19T04:02:00.295Z,19.50
2022-11-19T04:04:38.992Z,18.80
2022-11-19T04:07:09.052Z,17.93
2022-11-19T04:09:37.569Z,17.43
2022-11-19T04:12:15.733Z,18.97
2022-11-19T04:14:46.207Z,19.73
2022-11-19T04:17:14.798Z,17.37
2022-11-19T04:19:44.301Z,19.63
2022-11-19T04:22:12.635Z,20.87
2022-11-19T04:24:42.931Z,16.97
2022-11-19T04:27:11.017Z,18.37
2022-11-19T04:29:39.033Z,19.37
2022-11-19T04:32:07.372Z,23.90
2022-11-19T04:34:35.450Z,18.77
2022-11-19T04:37:04.874Z,18.00
2022-11-19T04:39:33.168Z,18.93
2022-11-19T04:42:01.311Z,17.87
2022-11-19T04:44:32.940Z,17.30
2022-11-19T04:47:01.178Z,17.90
2022-11-19T04:49:29.314Z,19.10
2022-11-19T04:51:57.563Z,17.10
2022-11-19T04:54:27.020Z,20.03
2022-11-19T04:56:55.091Z,19.30
2022-11-19T04:59:23.325Z,19.30
2022-11-19T05:01:51.432Z,20.97
2022-11-19T05:04:19.941Z,20.30
2022-11-19T05:06:48.017Z,20.57
2022-11-19T05:09:16.106Z,20.17
2022-11-19T05:11:45.510Z,19.93
2022-11-19T05:14:13.649Z,19.87
2022-11-19T05:16:44.138Z,18.43
2022-11-19T05:19:12.319Z,17.53
2022-11-19T05:21:40.397Z,18.63
2022-11-19T05:24:09.193Z,20.07
2022-11-19T05:26:39.838Z,18.17
2022-11-19T05:29:09.224Z,16.97
2022-11-19T05:31:37.312Z,19.50
2022-11-19T05:34:05.408Z,17.67
2022-11-19T05:36:35.809Z,19.13
2022-11-19T05:39:05.970Z,20.43
2022-11-19T05:41:34.074Z,16.13
2022-11-19T05:44:02.127Z,18.33
2022-11-19T05:46:31.587Z,19.70
2022-11-19T05:49:01.869Z,17.33
2022-11-19T05:51:29.925Z,17.23
2022-11-19T05:54:00.380Z,16.10
2022-11-19T05:56:28.493Z,16.27
2022-11-19T05:58:58.864Z,17.60
2022-11-19T06:01:27.611Z,16.73
2022-11-19T06:03:57.452Z,14.73
2022-11-19T06:06:25.918Z,16.87
2022-11-19T06:08:54.273Z,15.47
2022-11-19T06:11:39.655Z,17.80
2022-11-19T06:14:08.185Z,17.93
2022-11-19T06:16:36.275Z,17.43
2022-11-19T06:19:05.777Z,18.83
2022-11-19T06:21:34.020Z,18.10
2022-11-19T06:24:04.617Z,18.53
2022-11-19T06:26:32.844Z,17.57
2022-11-19T06:29:03.763Z,15.90
2022-11-19T06:31:34.176Z,15.97
2022-11-19T06:34:02.272Z,17.70
2022-11-19T06:36:37.503Z,17.53
2022-11-19T06:39:08.787Z,17.10
2022-11-19T06:41:37.194Z,18.50
2022-11-19T06:44:05.721Z,17.03
2022-11-19T06:46:33.809Z,17.03
2022-11-19T06:49:03.675Z,17.33
2022-11-19T06:51:35.162Z,14.50
2022-11-19T06:54:03.580Z,17.30
2022-11-19T06:56:34.074Z,16.37
2022-11-19T06:59:02.383Z,17.10
2022-11-19T07:01:30.548Z,16.33
2022-11-19T07:03:58.627Z,14.93
2022-11-19T07:06:29.088Z,17.00
2022-11-19T07:08:58.576Z,16.43
2022-11-19T07:11:26.710Z,17.03
2022-11-19T07:14:01.054Z,17.53
2022-11-19T07:16:31.038Z,22.97
2022-11-19T07:19:00.332Z,15.30
2022-11-19T07:21:29.292Z,17.93
2022-11-19T07:24:00.012Z,16.93
2022-11-19T07:26:32.190Z,17.03
2022-11-19T07:29:04.980Z,16.87
2022-11-19T07:31:35.678Z,17.80
2022-11-19T07:34:07.130Z,15.57
2022-11-19T07:36:35.276Z,17.20
2022-11-19T07:39:07.495Z,14.97
2022-11-19T07:41:53.301Z,15.87
2022-11-19T07:44:23.732Z,16.90
2022-11-19T07:46:54.452Z,17.07
2022-11-19T07:49:22.882Z,15.03
2022-11-19T07:51:53.322Z,14.80
2022-11-19T07:54:22.906Z,21.67
2022-11-19T07:56:51.075Z,16.53
2022-11-19T07:59:19.690Z,15.73
2022-11-19T08:01:47.881Z,15.90
2022-11-19T08:04:16.090Z,17.97
2022-11-19T08:06:44.159Z,18.20
2022-11-19T08:09:12.259Z,18.27
2022-11-19T08:11:43.903Z,18.30
2022-11-19T08:14:14.905Z,17.27
2022-11-19T08:17:00.254Z,16.43
2022-11-19T08:19:28.371Z,16.93
2022-11-19T08:21:58.795Z,14.20
2022-11-19T08:24:29.371Z,14.60
2022-11-19T08:26:58.923Z,15.13
2022-11-19T08:29:27.265Z,15.43
2022-11-19T08:31:55.527Z,13.90
2022-11-19T08:34:23.830Z,14.83
2022-11-19T08:36:52.158Z,13.43
2022-11-19T08:39:20.295Z,13.40
2022-11-19T08:42:05.826Z,13.43
2022-11-19T08:44:35.523Z,13.53
2022-11-19T08:47:03.726Z,12.87
2022-11-19T08:49:34.150Z,11.57
2022-11-19T08:52:02.320Z,12.77
2022-11-19T08:54:30.446Z,12.60
2022-11-19T08:56:58.616Z,13.40
2022-11-19T08:59:26.776Z,12.40
2022-11-19T09:01:56.240Z,10.30
2022-11-19T09:04:26.734Z,10.80
2022-11-19T09:06:58.287Z,11.10
2022-11-19T09:09:26.473Z,13.03
2022-11-19T09:11:55.463Z,12.30
2022-11-19T09:14:23.567Z,10.37
2022-11-19T09:16:51.648Z,12.63
2022-11-19T09:19:21.316Z,13.63
2022-11-19T09:21:49.426Z,15.63
2022-11-19T09:24:18.117Z,14.07
2022-11-19T09:26:52.626Z,10.53
2022-11-19T09:29:21.301Z,10.90
2022-11-19T09:31:49.400Z,10.27
2022-11-19T09:34:17.701Z,11.20
2022-11-19T09:36:47.492Z,10.30
2022-11-19T09:39:17.730Z,11.10
2022-11-19T09:41:51.235Z,10.77
2022-11-19T09:44:42.315Z,11.40
2022-11-19T09:47:23.960Z,12.73
2022-11-19T09:50:04.102Z,12.40
2022-11-19T09:52:44.130Z,9.70
2022-11-19T09:55:19.136Z,18.30
2022-11-19T09:57:51.945Z,15.33
2022-11-19T10:00:21.950Z,9.50
2022-11-19T10:02:50.609Z,12.93
2022-11-19T10:05:29.358Z,11.53
2022-11-19T10:08:08.111Z,8.97
2022-11-19T10:10:42.004Z,7.57
2022-11-19T10:13:26.380Z,7.37
2022-11-19T10:16:22.799Z,7.43
2022-11-19T10:18:59.281Z,7.37
2022-11-19T10:21:39.084Z,6.87
2022-11-19T10:24:18.161Z,7.27
2022-11-19T10:26:52.139Z,6.43
2022-11-19T10:29:23.056Z,8.63
2022-11-19T10:31:53.627Z,7.33
2022-11-19T10:34:27.201Z,6.73
2022-11-19T10:36:59.666Z,6.03
2022-11-19T10:39:37.679Z,5.67
2022-11-19T10:42:14.460Z,5.93
2022-11-19T10:44:47.581Z,5.87
2022-11-19T10:47:19.117Z,6.10
2022-11-19T10:49:52.026Z,8.27
2022-11-19T10:52:32.103Z,9.70
2022-11-19T10:55:06.052Z,7.80
2022-11-19T10:57:34.942Z,7.73
2022-11-19T11:00:03.889Z,5.87
2022-11-19T11:02:41.561Z,5.30
2022-11-19T11:05:15.606Z,6.10
2022-11-19T11:07:50.663Z,4.80
2022-11-19T11:10:37.193Z,5.27
2022-11-19T11:13:45.366Z,7.30
2022-11-19T11:16:17.646Z,7.27
2022-11-19T11:18:47.401Z,5.37
2022-11-19T11:21:30.755Z,4.77
2022-11-19T11:23:59.666Z,6.27
2022-11-19T11:26:31.137Z,4.70
2022-11-19T11:29:02.550Z,4.90
2022-11-19T11:31:39.785Z,6.70
2022-11-19T11:34:15.799Z,5.40
2022-11-19T11:36:45.373Z,5.47
2022-11-19T11:39:27.936Z,6.50
2022-11-19T11:42:07.215Z,5.67
2022-11-19T11:44:38.353Z,5.80
2022-11-19T11:47:14.084Z,4.83
2022-11-19T11:49:44.988Z,6.30
2022-11-19T11:52:22.967Z,5.87
2022-11-19T11:55:02.074Z,4.10
2022-11-19T11:57:34.146Z,5.23
2022-11-19T12:00:03.316Z,4.73
2022-11-19T12:02:35.018Z,4.67
2022-11-19T12:05:07.768Z,4.57
2022-11-19T12:07:57.564Z,5.23
2022-11-19T12:10:30.085Z,6.60
2022-11-19T12:13:28.163Z,4.17
2022-11-19T12:16:06.653Z,4.57
2022-11-19T12:18:43.804Z,4.83
2022-11-19T12:21:13.281Z,8.33
2022-11-19T12:23:59.743Z,5.67
2022-11-19T12:26:38.439Z,6.33
2022-11-19T12:29:17.906Z,5.50
2022-11-19T12:32:07.390Z,6.53
2022-11-19T12:34:50.522Z,5.57
2022-11-19T12:37:33.713Z,6.00
2022-11-19T12:40:16.618Z,6.50
2022-11-19T12:42:57.999Z,7.00
2022-11-19T12:45:38.555Z,5.73
2022-11-19T12:48:24.998Z,5.63
2022-11-19T12:50:58.538Z,9.73
2022-11-19T12:53:37.704Z,8.53
2022-11-19T12:56:18.398Z,7.10
2022-11-19T12:58:55.015Z,8.70
2022-11-19T13:01:27.985Z,7.17
2022-11-19T13:04:03.893Z,12.30
2022-11-19T13:06:41.211Z,6.00
2022-11-19T13:09:16.491Z,6.43
2022-11-19T13:11:47.369Z,7.00
2022-11-19T13:14:24.033Z,6.70
2022-11-19T13:16:55.672Z,6.80
2022-11-19T13:19:27.257Z,6.80
2022-11-19T13:22:03.674Z,5.20
2022-11-19T13:24:35.248Z,5.30
2022-11-19T13:27:06.484Z,7.23
2022-11-19T13:29:43.662Z,6.00
2022-11-19T13:32:27.470Z,5.10
2022-11-19T13:35:05.337Z,5.10
2022-11-19T13:37:46.727Z,5.80
2022-11-19T13:40:35.459Z,5.80
2022-11-19T13:43:36.977Z,6.27
2022-11-19T13:46:19.358Z,4.77
2022-11-19T13:48:55.421Z,4.47
2022-11-19T13:51:28.929Z,5.40
2022-11-19T13:54:02.982Z,4.43
2022-11-19T13:56:50.441Z,5.13
2022-11-19T13:59:36.771Z,7.37
2022-11-19T14:02:50.524Z,5.80
2022-11-19T14:05:43.852Z,4.80
2022-11-19T14:08:35.050Z,6.37
2022-11-19T14:11:20.786Z,6.07
2022-11-19T14:14:07.485Z,4.33
2022-11-19T14:17:03.096Z,4.33
2022-11-19T14:20:05.911Z,8.03
2022-11-19T14:23:06.549Z,5.67
2022-11-19T14:26:04.857Z,5.60
2022-11-19T14:28:47.054Z,5.80
2022-11-19T14:31:16.251Z,7.63
2022-11-19T14:34:04.199Z,8.80
2022-11-19T14:36:46.258Z,7.80
2022-11-19T14:39:22.286Z,7.97
2022-11-19T14:42:14.719Z,9.13
2022-11-19T14:44:43.572Z,6.10
2022-11-19T14:47:35.121Z,6.47
2022-11-19T14:50:06.374Z,6.47
2022-11-19T14:52:37.791Z,5.93
2022-11-19T14:55:22.219Z,7.87
2022-11-19T14:58:00.623Z,6.57
2022-11-19T15:00:33.253Z,6.20
2022-11-19T15:03:04.038Z,6.87
2022-11-19T15:05:34.741Z,7.67
2022-11-19T15:08:43.968Z,6.50
2022-11-19T15:11:15.460Z,6.80
2022-11-19T15:13:44.620Z,6.63
2022-11-19T15:16:16.299Z,7.00
2022-11-19T15:19:06.029Z,9.90
2022-11-19T15:21:58.279Z,11.70
2022-11-19T15:24:40.403Z,8.93
2022-11-19T15:27:20.312Z,9.53
2022-11-19T15:30:13.466Z,12.27
2022-11-19T15:33:09.089Z,11.30
2022-11-19T15:36:00.752Z,11.53
2022-11-19T15:38:36.365Z,10.00
2022-11-19T15:41:07.160Z,13.43
2022-11-19T15:43:44.779Z,15.33
2022-11-19T15:46:16.010Z,13.00
2022-11-19T15:48:55.865Z,12.57
2022-11-19T15:51:24.920Z,12.27
2022-11-19T15:54:00.495Z,12.73
2022-11-19T15:56:32.487Z,10.83
2022-11-19T15:59:03.513Z,8.10
2022-11-19T16:01:34.389Z,9.43
2022-11-19T16:04:08.275Z,8.77
2022-11-19T16:06:40.080Z,7.87
2022-11-19T16:09:08.728Z,8.53
2022-11-19T16:11:55.901Z,8.10
2022-11-19T16:14:55.698Z,10.87
2022-11-19T16:17:43.052Z,9.37
2022-11-19T16:20:22.032Z,10.40
2022-11-19T16:22:59.316Z,11.20
2022-11-19T16:25:32.371Z,11.50
2022-11-19T16:28:03.512Z,10.90
2022-11-19T16:30:43.640Z,18.33
2022-11-19T16:33:17.448Z,17.37
2022-11-19T16:35:49.800Z,16.67
2022-11-19T16:38:27.252Z,15.73
2022-11-19T16:41:27.512Z,10.27
2022-11-19T16:43:58.636Z,11.47
2022-11-19T16:46:30.653Z,9.57
2022-11-19T16:49:00.169Z,6.47
2022-11-19T16:51:39.908Z,8.20
2022-11-19T16:54:10.207Z,8.37
2022-11-19T16:56:46.101Z,9.23
2022-11-19T16:59:23.773Z,8.37
2022-11-19T17:01:59.550Z,9.50
2022-11-19T17:04:30.080Z,9.47
2022-11-19T17:07:00.820Z,9.30
2022-11-19T17:09:41.535Z,8.93
2022-11-19T17:12:25.717Z,9.40
2022-11-19T17:14:57.156Z,8.17
2022-11-19T17:17:42.387Z,8.07
2022-11-19T17:20:59.328Z,11.10
2022-11-19T17:23:28.884Z,12.57
2022-11-19T17:25:59.639Z,11.53
2022-11-19T17:28:36.346Z,10.33
2022-11-19T17:31:07.595Z,13.90
2022-11-19T17:33:37.750Z,13.20
2022-11-19T17:36:13.402Z,15.10
2022-11-19T17:38:41.690Z,14.50
2022-11-19T17:41:13.711Z,13.70
2022-11-19T17:44:01.667Z,11.03
2022-11-19T17:46:31.004Z,9.77
2022-11-19T17:49:00.432Z,8.23
2022-11-19T17:51:28.521Z,7.90
2022-11-19T17:53:57.893Z,9.25
2022-11-19T17:56:27.665Z,8.10
2022-11-19T17:58:59.647Z,7.17
2022-11-19T18:01:28.250Z,9.97
2022-11-19T18:03:56.422Z,14.90
2022-11-19T18:06:25.909Z,19.77
2022-11-19T18:08:54.100Z,22.97
2022-11-19T18:11:24.481Z,23.47
2022-11-19T18:13:57.539Z,21.43
2022-11-19T18:16:27.217Z,21.33
2022-11-19T18:18:55.290Z,22.07
2022-11-19T18:21:27.204Z,23.03
2022-11-19T18:23:55.301Z,20.90
2022-11-19T18:26:24.164Z,18.67
2022-11-19T18:28:52.719Z,16.67
2022-11-19T18:31:22.784Z,13.80
2022-11-19T18:33:53.297Z,15.37
2022-11-19T18:36:21.957Z,14.93
2022-11-19T18:38:55.522Z,12.73
2022-11-19T18:41:26.130Z,13.93
2022-11-19T18:44:11.540Z,13.20
2022-11-19T18:46:39.956Z,13.43
2022-11-19T18:49:08.112Z,13.63
2022-11-19T18:51:36.289Z,13.37
2022-11-19T18:54:05.925Z,13.97
2022-11-19T18:56:36.091Z,11.43
2022-11-19T18:59:05.195Z,12.73
2022-11-19T19:01:33.625Z,9.87
2022-11-19T19:04:02.263Z,10.77
2022-11-19T19:06:33.285Z,9.87
2022-11-19T19:09:01.493Z,11.13
2022-11-19T19:12:18.566Z,9.27
2022-11-19T19:14:48.111Z,8.77
2022-11-19T19:17:17.017Z,10.20
2022-11-19T19:19:45.640Z,10.23
2022-11-19T19:22:15.779Z,10.27
2022-11-19T19:24:46.959Z,11.57
2022-11-19T19:27:16.446Z,11.33
2022-11-19T19:29:44.564Z,13.33
2022-11-19T19:32:12.662Z,11.73
2022-11-19T19:34:40.779Z,14.20
2022-11-19T19:37:08.936Z,12.67
2022-11-19T19:39:39.396Z,13.13
2022-11-19T19:42:07.553Z,10.57
2022-11-19T19:44:37.150Z,12.17
2022-11-19T19:47:07.836Z,16.23
2022-11-19T19:49:38.909Z,10.33
2022-11-19T19:52:07.455Z,10.07
2022-11-19T19:54:35.593Z,10.10
2022-11-19T19:57:03.771Z,10.13
2022-11-19T19:59:31.894Z,9.37
2022-11-19T20:02:01.524Z,9.27
2022-11-19T20:04:29.716Z,7.67
2022-11-19T20:06:57.913Z,9.50
2022-11-19T20:09:26.486Z,9.17
2022-11-19T20:11:55.584Z,10.03
2022-11-19T20:14:23.794Z,8.73
2022-11-19T20:16:54.493Z,7.13
2022-11-19T20:19:26.494Z,7.63
2022-11-19T20:21:55.215Z,8.77
2022-11-19T20:24:23.359Z,7.77
2022-11-19T20:26:51.531Z,6.37
2022-11-19T20:29:23.784Z,7.13
2022-11-19T20:31:52.064Z,8.10
2022-11-19T20:34:20.243Z,9.17
2022-11-19T20:36:50.116Z,9.27
2022-11-19T20:39:18.400Z,10.10
2022-11-19T20:42:04.112Z,10.30
2022-11-19T20:44:34.519Z,10.73
2022-11-19T20:47:03.849Z,12.77
2022-11-19T20:49:35.584Z,11.87
2022-11-19T20:52:07.476Z,11.87
2022-11-19T20:54:38.017Z,10.67
2022-11-19T20:57:08.945Z,12.30
2022-11-19T20:59:40.077Z,11.30
2022-11-19T21:02:08.280Z,13.10
2022-11-19T21:04:37.226Z,12.63
2022-11-19T21:07:09.157Z,9.13
2022-11-19T21:09:37.473Z,12.17
2022-11-19T21:12:07.889Z,11.70
2022-11-19T21:14:38.703Z,12.37
2022-11-19T21:17:06.874Z,10.10
2022-11-19T21:19:35.001Z,10.20
2022-11-19T21:22:03.180Z,12.93
2022-11-19T21:24:32.922Z,13.50
2022-11-19T21:27:01.024Z,12.63
2022-11-19T21:29:29.151Z,12.17
2022-11-19T21:31:57.271Z,9.07
2022-11-19T21:34:25.419Z,11.43
2022-11-19T21:36:53.578Z,11.03
2022-11-19T21:39:22.085Z,10.50
2022-11-19T21:41:51.771Z,12.33
2022-11-19T21:44:22.284Z,11.37
2022-11-19T21:46:51.606Z,11.80
2022-11-19T21:49:19.986Z,12.47
2022-11-19T21:51:49.032Z,10.40
2022-11-19T21:54:17.168Z,11.83
2022-11-19T21:56:45.298Z,10.67
2022-11-19T21:59:17.170Z,10.10
2022-11-19T22:01:47.295Z,10.20
2022-11-19T22:04:20.892Z,8.77
2022-11-19T22:06:49.111Z,11.13
2022-11-19T22:09:17.423Z,12.70
2022-11-19T22:11:45.810Z,11.37
2022-11-19T22:14:17.297Z,13.00
2022-11-19T22:16:47.473Z,11.43
2022-11-19T22:19:17.778Z,10.90
2022-11-19T22:21:46.629Z,10.00
2022-11-19T22:24:15.037Z,11.03
2022-11-19T22:26:43.088Z,12.87
2022-11-19T22:29:11.350Z,11.00
2022-11-19T22:31:40.841Z,12.20
2022-11-19T22:34:12.409Z,11.60
2022-11-19T22:36:40.661Z,13.30
2022-11-19T22:39:09.070Z,15.30
2022-11-19T22:41:37.300Z,14.50
2022-11-19T22:44:06.250Z,16.97
2022-11-19T22:46:34.403Z,13.90
2022-11-19T22:49:06.151Z,13.43
2022-11-19T22:51:34.312Z,14.33
2022-11-19T22:54:02.703Z,14.87
2022-11-19T22:56:31.888Z,14.63
2022-11-19T22:59:00.032Z,15.40
2022-11-19T23:01:29.814Z,13.90
2022-11-19T23:04:02.733Z,15.03
2022-11-19T23:06:32.787Z,14.87
2022-11-19T23:09:04.076Z,13.60
2022-11-19T23:11:52.242Z,16.43
2022-11-19T23:14:20.933Z,16.67
2022-11-19T23:16:49.188Z,16.13
2022-11-19T23:19:20.208Z,16.17
2022-11-19T23:21:50.011Z,15.83
2022-11-19T23:24:20.252Z,15.73
2022-11-19T23:26:50.804Z,19.60
2022-11-19T23:29:19.406Z,17.60
2022-11-19T23:31:50.185Z,17.37
2022-11-19T23:34:18.379Z,19.10
2022-11-19T23:36:50.403Z,16.27
2022-11-19T23:39:21.752Z,16.87
2022-11-19T23:41:50.002Z,17.13
2022-11-19T23:44:18.206Z,19.27
2022-11-19T23:46:46.328Z,18.70
2022-11-19T23:49:14.385Z,17.73
2022-11-19T23:51:42.517Z,19.43
2022-11-19T23:54:14.920Z,20.07
2022-11-19T23:56:43.112Z,16.93
2022-11-19T23:59:13.755Z,15.70
